Hovedside
METAR-TAF:

METAR-TAF

Lufthavner :

Guaymas, Mexico

breddegrad: 27-58N, lengdegrad: 110-56W, høyde over havet: 27 m

Gjeldene værobservasjon

Denne rapporten ble laget for 1 time og 38 minutter siden, klokken 01:40 UTC
Vind 10 kt fra Sørvest
Temperatur 34°C
Luftfuktighet 36%
Trykk 1002 hPa
Sikt: 16.1 km
Skyfri himmel

METAR: MMGM 200140Z 22010KT 10SM SKC 34/17 A2960

Tid: 20:18 (03:18 UTC)

Varsel

Denne rapporten ble laget for 10 timer og 5 minutter siden, klokken 17:13 UTC
Varsel gyldig fra 19. klokken 18 UTC til 20. klokken 18 UTC
Vind 10 kt fra Sørvest
Sikt: 10 km
Skyfri himmel
Fra 20. klokken 0400 UTC
Vind 5 kt fra Vest-sørvest
Sikt: 10 km
Skyfri himmel
Fra 20. klokken 1800 UTC
Vind 10 kt fra Sørvest
Sikt: 10 km
Skyfri himmel

TAF: MMGM 191713Z 1918/2018 22010KT P6SM SKC FM200400 24005KT P6SM SKC FM201800 22010KT P6SM SKC

Værobservasjoner og værvarsel for over 4000 flyplasser (METAR- og TAF-rapporter).

Tilgjengelige stasjoner er representert av de røde og gule prikkene på kartet.

Hold musepekeren over prikken for å se navnet på stasjonen.

Klikk så for å se værobservasjoner og -varsler.

For å forandre kartet kan du klikke på den grønne knappen med svart kryss for å zoome inn, på den grønne knappen med strek for å zoome ut, eller på de grønne pilene for å se tilstøtende kart.


METAR-TAF: